Time;durP1;ratioP1;P1;durP2;ratioP2;P2;SDS_P1;SDS_P2;PMS_P1;PMS_P2;Temp;Humidity;BMP_temperature;BMP_pressure;BME280_temperature;BME280_humidity;BME280_pressure;Samples;Min_cycle;Max_cycle;Signal;HPM_P1;HPM_P2
2023/08/10 00:01:31;;;;;;;3.10;2.30;;;;;;;;;;6196947;23;20433;-87
2023/08/10 00:03:57;;;;;;;2.57;2.37;;;;;;;;;;6202998;23;20441;-88
2023/08/10 00:06:28;;;;;;;3.47;2.53;;;;;;;;;;6198600;23;20379;-87
2023/08/10 00:08:57;;;;;;;3.43;2.67;;;;;;;;;;6195379;23;20461;-87
2023/08/10 00:11:23;;;;;;;3.03;2.63;;;;;;;;;;6163696;23;20400;-88
2023/08/10 00:14:07;;;;;;;;;;;;;;;;;;;;;
2023/08/10 00:16:33;;;;;;;3.80;2.27;;;;;;;;;;6188596;23;20435;-87
2023/08/10 00:19:00;;;;;;;2.43;2.20;;;;;;;;;;6166989;23;20384;-87
2023/08/10 00:21:26;;;;;;;3.23;2.67;;;;;;;;;;6164272;23;20459;-87
2023/08/10 00:23:58;;;;;;;3.17;2.60;;;;;;;;;;6191087;23;20379;-87
2023/08/10 00:26:24;;;;;;;5.53;3.13;;;;;;;;;;6163385;23;20376;-88
2023/08/10 00:28:50;;;;;;;2.83;2.60;;;;;;;;;;6167162;23;20380;-87
2023/08/10 00:31:16;;;;;;;3.57;2.50;;;;;;;;;;6138077;23;20442;-87
2023/08/10 00:34:03;;;;;;;3.23;2.43;;;;;;;;;;6144437;23;20375;-86
2023/08/10 00:36:29;;;;;;;8.73;2.73;;;;;;;;;;6162363;23;20380;-86
2023/08/10 00:38:55;;;;;;;4.83;2.67;;;;;;;;;;6142390;23;20391;-86
2023/08/10 00:41:21;;;;;;;4.37;3.07;;;;;;;;;;6138654;23;20391;-88
2023/08/10 00:43:55;;;;;;;2.80;1.80;;;;;;;;;;6146123;23;20380;-86
2023/08/10 00:46:21;;;;;;;4.03;3.00;;;;;;;;;;6165213;23;20967;-87
2023/08/10 00:48:50;;;;;;;5.90;3.30;;;;;;;;;;6145182;23;20459;-87
2023/08/10 00:51:16;;;;;;;4.13;3.20;;;;;;;;;;6141560;23;20462;-87
2023/08/10 00:53:42;;;;;;;3.70;3.17;;;;;;;;;;6221351;22;20887;-88
2023/08/10 00:56:08;;;;;;;3.37;2.73;;;;;;;;;;6257979;22;20395;-86
2023/08/10 00:58:35;;;;;;;3.13;2.73;;;;;;;;;;6231311;22;20790;-86
2023/08/10 01:01:01;;;;;;;4.80;3.03;;;;;;;;;;6233858;22;20453;-86
2023/08/10 01:03:27;;;;;;;3.97;3.30;;;;;;;;;;6256820;22;20367;-88
2023/08/10 01:06:01;;;;;;;3.60;3.30;;;;;;;;;;6235961;22;20869;-87
2023/08/10 01:08:31;;;;;;;4.00;3.10;;;;;;;;;;6231717;22;21158;-87
2023/08/10 01:11:15;;;;;;;2.77;2.47;;;;;;;;;;6235057;22;20460;-86
2023/08/10 01:14:00;;;;;;;5.47;2.60;;;;;;;;;;6231638;22;20405;-86
2023/08/10 01:16:26;;;;;;;4.10;2.90;;;;;;;;;;6240460;22;20397;-85
2023/08/10 01:18:52;;;;;;;4.10;3.70;;;;;;;;;;6231041;22;20502;-86
2023/08/10 01:21:37;;;;;;;3.90;3.20;;;;;;;;;;6258496;22;20417;-87
2023/08/10 01:24:04;;;;;;;3.80;3.00;;;;;;;;;;6231528;22;20876;-87
2023/08/10 01:26:30;;;;;;;3.40;2.90;;;;;;;;;;6258499;22;20444;-87
2023/08/10 01:28:56;;;;;;;3.77;3.43;;;;;;;;;;6231354;22;20439;-86
2023/08/10 01:31:25;;;;;;;3.23;2.73;;;;;;;;;;6234191;22;20488;-87
2023/08/10 01:33:51;;;;;;;3.10;2.80;;;;;;;;;;6231952;22;20385;-87
2023/08/10 01:36:17;;;;;;;4.83;3.40;;;;;;;;;;6228319;23;20394;-86
2023/08/10 01:38:43;;;;;;;5.77;3.80;;;;;;;;;;6199091;23;20378;-87
2023/08/10 01:41:09;;;;;;;4.90;3.87;;;;;;;;;;6202262;23;20445;-87
2023/08/10 01:43:34;;;;;;;3.63;3.20;;;;;;;;;;6223627;23;20374;-87
2023/08/10 01:46:01;;;;;;;3.33;3.03;;;;;;;;;;6203703;23;20406;-89
2023/08/10 01:48:36;;;;;;;3.40;2.93;;;;;;;;;;6196849;23;20374;-87
2023/08/10 01:51:02;;;;;;;3.63;3.33;;;;;;;;;;6203817;23;20409;-87
2023/08/10 01:53:32;;;;;;;3.83;3.43;;;;;;;;;;6197169;23;20401;-87
2023/08/10 01:56:01;;;;;;;6.90;3.57;;;;;;;;;;6202106;23;20386;-87
2023/08/10 01:58:27;;;;;;;3.90;3.13;;;;;;;;;;6190139;23;20402;-87
2023/08/10 02:00:53;;;;;;;3.60;3.03;;;;;;;;;;6173554;23;20414;-87
2023/08/10 02:03:19;;;;;;;4.07;3.67;;;;;;;;;;6193304;23;20375;-87
2023/08/10 02:05:45;;;;;;;4.30;3.40;;;;;;;;;;6171406;23;20379;-87
2023/08/10 02:08:11;;;;;;;3.73;3.43;;;;;;;;;;6170508;23;20379;-87
2023/08/10 02:10:47;;;;;;;5.27;4.23;;;;;;;;;;6176322;23;20379;-87
2023/08/10 02:13:13;;;;;;;4.60;4.10;;;;;;;;;;6170161;23;20411;-87
2023/08/10 02:15:42;;;;;;;3.63;3.07;;;;;;;;;;6170380;23;20839;-88
2023/08/10 02:18:08;;;;;;;3.50;3.20;;;;;;;;;;6169483;23;20387;-87
2023/08/10 02:20:52;;;;;;;4.00;3.40;;;;;;;;;;6176808;23;20426;-87
2023/08/10 02:23:18;;;;;;;3.77;3.40;;;;;;;;;;6192779;23;20379;-86
2023/08/10 02:25:44;;;;;;;4.87;3.60;;;;;;;;;;6170185;23;20375;-87
2023/08/10 02:28:10;;;;;;;4.33;3.87;;;;;;;;;;6170099;22;20371;-86
2023/08/10 02:30:42;;;;;;;3.10;2.80;;;;;;;;;;6233681;22;20362;-88
2023/08/10 02:33:08;;;;;;;3.67;3.33;;;;;;;;;;6282573;22;20805;-88
2023/08/10 02:35:40;;;;;;;5.43;3.07;;;;;;;;;;6232915;22;20424;-87
2023/08/10 02:38:06;;;;;;;3.70;3.23;;;;;;;;;;6256860;22;20820;-88
2023/08/10 02:40:34;;;;;;;3.60;3.30;;;;;;;;;;6256875;22;20405;-87
2023/08/10 02:43:00;;;;;;;4.33;3.10;;;;;;;;;;6230689;22;20444;-87
2023/08/10 02:45:33;;;;;;;3.67;2.87;;;;;;;;;;6232429;22;20373;-87
2023/08/10 02:47:59;;;;;;;4.90;3.30;;;;;;;;;;6195316;23;20390;-88
2023/08/10 02:50:32;;;;;;;5.30;3.07;;;;;;;;;;6170390;23;20379;-86
2023/08/10 02:52:58;;;;;;;7.13;2.40;;;;;;;;;;6169563;23;20390;-88
2023/08/10 02:55:24;;;;;;;4.43;2.97;;;;;;;;;;6160739;23;20436;-87
2023/08/10 02:57:50;;;;;;;4.87;3.00;;;;;;;;;;6164191;23;20403;-88
2023/08/10 03:00:17;;;;;;;3.90;3.50;;;;;;;;;;6164393;23;20430;-88
2023/08/10 03:02:43;;;;;;;4.10;3.40;;;;;;;;;;6166800;23;20386;-87
2023/08/10 03:05:11;;;;;;;4.60;3.33;;;;;;;;;;6188218;23;20375;-87
2023/08/10 03:07:38;;;;;;;4.90;3.33;;;;;;;;;;6166471;23;20431;-87
2023/08/10 03:10:04;;;;;;;8.03;3.20;;;;;;;;;;6161946;23;20383;-87
2023/08/10 03:12:30;;;;;;;2.50;2.23;;;;;;;;;;6187226;23;20491;-88
2023/08/10 03:14:56;;;;;;;3.67;3.10;;;;;;;;;;6162367;23;20384;-87
2023/08/10 03:17:36;;;;;;;4.40;3.20;;;;;;;;;;6171369;23;20371;-87
2023/08/10 03:20:06;;;;;;;3.50;3.20;;;;;;;;;;6252910;22;20853;-88
2023/08/10 03:22:46;;;;;;;3.37;3.07;;;;;;;;;;6237279;22;20369;-87
2023/08/10 03:25:12;;;;;;;4.00;3.23;;;;;;;;;;6281388;22;20337;-86
2023/08/10 03:27:38;;;;;;;3.97;3.57;;;;;;;;;;6230038;22;20377;-86
2023/08/10 03:30:04;;;;;;;3.70;3.00;;;;;;;;;;6230147;22;20408;-88
2023/08/10 03:32:30;;;;;;;4.20;3.37;;;;;;;;;;6230455;22;20962;-88
2023/08/10 03:34:56;;;;;;;8.37;3.50;;;;;;;;;;6230852;22;20837;-87
2023/08/10 03:37:25;;;;;;;6.57;4.30;;;;;;;;;;6232825;22;20408;-86
2023/08/10 03:39:52;;;;;;;5.13;3.07;;;;;;;;;;6256998;22;20478;-89
2023/08/10 03:42:19;;;;;;;4.40;3.50;;;;;;;;;;6231754;22;20845;-87
2023/08/10 03:44:45;;;;;;;4.97;2.83;;;;;;;;;;6231930;22;20365;-87
2023/08/10 03:47:11;;;;;;;7.03;3.63;;;;;;;;;;6229356;22;20407;-87
2023/08/10 03:49:37;;;;;;;8.10;3.67;;;;;;;;;;6229047;22;20381;-88
2023/08/10 03:52:10;;;;;;;3.27;2.97;;;;;;;;;;6229105;22;20393;-87
2023/08/10 03:54:36;;;;;;;5.17;3.83;;;;;;;;;;6257071;22;20373;-87
2023/08/10 03:57:03;;;;;;;3.83;3.40;;;;;;;;;;6229125;22;21102;-87
2023/08/10 03:59:29;;;;;;;3.37;2.90;;;;;;;;;;6256044;22;20415;-87
2023/08/10 04:01:55;;;;;;;7.03;3.60;;;;;;;;;;6229681;22;20409;-87
2023/08/10 04:04:23;;;;;;;4.87;3.27;;;;;;;;;;6232462;22;20447;-87
2023/08/10 04:06:49;;;;;;;5.37;4.10;;;;;;;;;;6230785;22;20361;-88
2023/08/10 04:09:15;;;;;;;4.03;3.50;;;;;;;;;;6234785;22;20372;-87
2023/08/10 04:11:41;;;;;;;5.10;3.50;;;;;;;;;;6255896;22;20361;-88
2023/08/10 04:14:07;;;;;;;4.73;4.23;;;;;;;;;;6235129;22;20373;-86
2023/08/10 04:16:33;;;;;;;3.73;3.00;;;;;;;;;;6229945;22;20382;-86
2023/08/10 04:18:59;;;;;;;3.60;3.30;;;;;;;;;;6237281;22;20401;-86
2023/08/10 04:21:25;;;;;;;4.23;3.60;;;;;;;;;;6256414;22;20467;-87
2023/08/10 04:23:51;;;;;;;4.43;4.03;;;;;;;;;;6240954;22;20404;-88
2023/08/10 04:26:17;;;;;;;5.73;2.90;;;;;;;;;;6230776;22;20472;-87
2023/08/10 04:28:43;;;;;;;4.10;3.37;;;;;;;;;;6232834;22;20381;-87
2023/08/10 04:31:09;;;;;;;5.67;3.47;;;;;;;;;;6229402;22;20385;-87
2023/08/10 04:33:35;;;;;;;3.73;3.40;;;;;;;;;;6232152;22;20452;-88
2023/08/10 04:36:02;;;;;;;3.83;3.43;;;;;;;;;;6254859;22;20373;-89
2023/08/10 04:38:32;;;;;;;4.87;3.70;;;;;;;;;;6257131;22;20370;-86
2023/08/10 04:40:58;;;;;;;5.30;4.00;;;;;;;;;;6254760;22;20421;-87
2023/08/10 04:43:24;;;;;;;5.03;3.00;;;;;;;;;;6234371;22;20377;-87
2023/08/10 04:45:51;;;;;;;6.60;3.20;;;;;;;;;;6230580;22;20377;-88
2023/08/10 04:48:18;;;;;;;5.60;3.90;;;;;;;;;;6232132;22;20385;-87
2023/08/10 04:50:44;;;;;;;4.40;3.60;;;;;;;;;;6231945;22;20384;-88
2023/08/10 04:53:10;;;;;;;4.37;3.17;;;;;;;;;;6237049;22;20370;-86
2023/08/10 04:55:36;;;;;;;4.13;3.73;;;;;;;;;;6236715;22;20971;-88
2023/08/10 04:58:03;;;;;;;3.90;3.50;;;;;;;;;;6233580;22;20377;-87
2023/08/10 05:00:29;;;;;;;5.43;3.93;;;;;;;;;;6224647;23;20422;-87
2023/08/10 05:02:55;;;;;;;4.10;3.50;;;;;;;;;;6171016;23;20450;-86
2023/08/10 05:05:21;;;;;;;4.63;3.60;;;;;;;;;;6197120;23;20371;-91
2023/08/10 05:07:47;;;;;;;5.50;3.83;;;;;;;;;;6174841;23;20383;-87
2023/08/10 05:10:13;;;;;;;6.50;4.23;;;;;;;;;;6169504;23;20379;-87
2023/08/10 05:12:39;;;;;;;5.60;3.90;;;;;;;;;;6174928;23;20899;-88
2023/08/10 05:15:05;;;;;;;6.20;4.10;;;;;;;;;;6171509;23;20379;-88
2023/08/10 05:17:31;;;;;;;4.97;3.83;;;;;;;;;;6202084;23;20969;-87
2023/08/10 05:19:57;;;;;;;6.50;4.63;;;;;;;;;;6195834;23;20418;-89
2023/08/10 05:22:24;;;;;;;8.83;4.27;;;;;;;;;;6177978;23;20397;-87
2023/08/10 05:24:50;;;;;;;6.50;4.37;;;;;;;;;;6171633;23;20379;-87
2023/08/10 05:27:17;;;;;;;4.83;4.30;;;;;;;;;;6204958;23;20458;-87
2023/08/10 05:29:43;;;;;;;5.90;4.73;;;;;;;;;;6170860;23;20383;-87
2023/08/10 05:32:09;;;;;;;4.90;3.90;;;;;;;;;;6224960;22;20700;-87
2023/08/10 05:34:35;;;;;;;4.60;4.17;;;;;;;;;;6234638;22;20404;-86
2023/08/10 05:37:04;;;;;;;4.60;4.13;;;;;;;;;;6259486;22;20369;-86
2023/08/10 05:39:30;;;;;;;4.80;3.60;;;;;;;;;;6231589;22;20421;-87
2023/08/10 05:41:56;;;;;;;4.63;3.47;;;;;;;;;;6261989;22;20388;-86
2023/08/10 05:44:22;;;;;;;4.03;3.63;;;;;;;;;;6257750;22;20357;-88
2023/08/10 05:46:54;;;;;;;4.73;4.17;;;;;;;;;;6261170;22;20517;-87
2023/08/10 05:49:20;;;;;;;3.63;3.23;;;;;;;;;;6257457;22;20378;-85
2023/08/10 05:51:45;;;;;;;5.10;4.27;;;;;;;;;;6261522;22;20376;-86
2023/08/10 05:54:11;;;;;;;4.23;3.83;;;;;;;;;;6232122;22;20373;-86
2023/08/10 05:56:37;;;;;;;5.13;4.60;;;;;;;;;;6258238;22;20373;-87
2023/08/10 05:59:04;;;;;;;5.60;5.10;;;;;;;;;;6230323;22;20385;-87
2023/08/10 06:01:30;;;;;;;5.00;4.50;;;;;;;;;;6239046;22;20759;-88
2023/08/10 06:03:56;;;;;;;5.30;4.67;;;;;;;;;;6229504;22;20384;-87
2023/08/10 06:06:22;;;;;;;6.97;4.80;;;;;;;;;;6231267;22;20369;-87
2023/08/10 06:08:48;;;;;;;6.10;4.17;;;;;;;;;;6230755;22;20474;-88
2023/08/10 06:11:15;;;;;;;5.17;4.67;;;;;;;;;;6258939;22;20433;-87
2023/08/10 06:13:41;;;;;;;7.20;5.27;;;;;;;;;;6233114;22;20366;-87
2023/08/10 06:16:09;;;;;;;7.57;4.77;;;;;;;;;;6233800;22;20449;-89
2023/08/10 06:18:35;;;;;;;5.40;4.83;;;;;;;;;;6235008;22;20365;-89
2023/08/10 06:21:04;;;;;;;4.43;3.93;;;;;;;;;;6237817;22;20448;-92
2023/08/10 06:23:30;;;;;;;5.20;4.60;;;;;;;;;;6288202;22;20872;-87
2023/08/10 06:25:56;;;;;;;5.03;4.53;;;;;;;;;;6233969;22;20448;-88
2023/08/10 06:28:25;;;;;;;6.03;4.70;;;;;;;;;;6234872;22;20396;-88
2023/08/10 06:30:53;;;;;;;5.90;4.20;;;;;;;;;;6258813;22;20369;-87
2023/08/10 06:33:19;;;;;;;5.27;4.50;;;;;;;;;;6237438;22;20357;-88
2023/08/10 06:35:45;;;;;;;6.30;4.80;;;;;;;;;;6230264;22;20373;-89
2023/08/10 06:38:11;;;;;;;4.33;3.93;;;;;;;;;;6231830;22;20379;-90
2023/08/10 06:40:38;;;;;;;5.10;3.70;;;;;;;;;;6239049;22;20455;-87
2023/08/10 06:43:04;;;;;;;4.83;3.90;;;;;;;;;;6231349;22;20380;-87
2023/08/10 06:45:30;;;;;;;4.43;4.03;;;;;;;;;;6232889;22;20389;-88
2023/08/10 06:47:56;;;;;;;4.07;3.67;;;;;;;;;;6230199;22;20405;-87
2023/08/10 06:50:24;;;;;;;4.30;3.83;;;;;;;;;;6233541;22;20456;-87
2023/08/10 06:52:52;;;;;;;3.83;3.47;;;;;;;;;;6257873;22;20376;-89
2023/08/10 06:55:20;;;;;;;5.50;3.70;;;;;;;;;;6233637;22;20371;-87
2023/08/10 06:57:46;;;;;;;5.10;3.77;;;;;;;;;;6224932;23;20382;-86
2023/08/10 07:00:14;;;;;;;4.60;3.90;;;;;;;;;;6200379;23;20414;-86
2023/08/10 07:02:41;;;;;;;7.70;4.40;;;;;;;;;;6135299;23;20439;-87
2023/08/10 07:05:12;;;;;;;5.27;3.80;;;;;;;;;;6135635;23;20416;-87
2023/08/10 07:07:42;;;;;;;4.47;3.50;;;;;;;;;;6162463;23;20379;-87
2023/08/10 07:10:09;;;;;;;5.37;4.87;;;;;;;;;;6159359;23;20376;-86
2023/08/10 07:12:35;;;;;;;4.60;4.20;;;;;;;;;;6138555;23;20990;-87
2023/08/10 07:15:04;;;;;;;4.80;3.90;;;;;;;;;;6135052;23;20754;-89
2023/08/10 07:17:30;;;;;;;8.27;4.40;;;;;;;;;;6136775;23;20877;-87
2023/08/10 07:19:56;;;;;;;5.03;3.70;;;;;;;;;;6133943;23;20520;-88
2023/08/10 07:22:22;;;;;;;6.30;4.23;;;;;;;;;;6138074;23;20425;-87
2023/08/10 07:24:48;;;;;;;5.50;4.83;;;;;;;;;;6136129;23;20373;-88
2023/08/10 07:27:17;;;;;;;4.93;4.20;;;;;;;;;;6139829;23;21189;-88
2023/08/10 07:29:43;;;;;;;4.67;4.10;;;;;;;;;;6188626;23;20386;-88
2023/08/10 07:32:09;;;;;;;4.60;4.20;;;;;;;;;;6167897;23;20451;-89
2023/08/10 07:34:35;;;;;;;9.07;4.00;;;;;;;;;;6167109;23;20384;-88
2023/08/10 07:37:04;;;;;;;5.90;4.17;;;;;;;;;;6170437;23;20372;-87
2023/08/10 07:39:30;;;;;;;5.70;3.80;;;;;;;;;;6190660;22;20451;-87
2023/08/10 07:41:56;;;;;;;5.20;3.77;;;;;;;;;;6234600;22;20384;-87
2023/08/10 07:44:23;;;;;;;4.83;3.60;;;;;;;;;;6232588;22;20720;-87
2023/08/10 07:46:49;;;;;;;4.57;3.90;;;;;;;;;;6232746;22;20694;-87
2023/08/10 07:49:15;;;;;;;4.20;3.67;;;;;;;;;;6232084;22;20369;-87
2023/08/10 07:51:46;;;;;;;4.63;4.17;;;;;;;;;;6235582;22;20421;-88
2023/08/10 07:54:12;;;;;;;6.40;5.33;;;;;;;;;;6234262;22;20369;-87
2023/08/10 07:56:38;;;;;;;5.67;4.90;;;;;;;;;;6232407;22;20755;-86
2023/08/10 07:59:04;;;;;;;4.97;4.47;;;;;;;;;;6192329;23;20426;-88
2023/08/10 08:01:30;;;;;;;5.10;4.00;;;;;;;;;;6162054;23;20517;-87
2023/08/10 08:03:56;;;;;;;6.10;4.10;;;;;;;;;;6165100;23;20875;-88
2023/08/10 08:06:23;;;;;;;7.57;4.47;;;;;;;;;;6163125;23;20380;-88
2023/08/10 08:08:49;;;;;;;4.67;3.80;;;;;;;;;;6167385;23;20438;-87
2023/08/10 08:11:15;;;;;;;5.00;4.03;;;;;;;;;;6165228;23;20376;-88
2023/08/10 08:13:41;;;;;;;4.37;3.97;;;;;;;;;;6166342;23;20938;-87
2023/08/10 08:16:07;;;;;;;4.90;3.30;;;;;;;;;;6164027;23;20391;-87
2023/08/10 08:18:42;;;;;;;4.17;3.70;;;;;;;;;;6162644;23;20388;-87
2023/08/10 08:21:27;;;;;;;8.00;4.63;;;;;;;;;;6161511;23;20911;-87
2023/08/10 08:23:53;;;;;;;4.70;4.10;;;;;;;;;;6166834;23;20384;-87
2023/08/10 08:26:20;;;;;;;4.70;4.00;;;;;;;;;;6163228;23;20384;-88
2023/08/10 08:28:46;;;;;;;5.73;4.00;;;;;;;;;;6167552;23;20415;-89
2023/08/10 08:31:12;;;;;;;4.60;4.10;;;;;;;;;;6230979;22;20827;-87
2023/08/10 08:33:39;;;;;;;5.00;4.30;;;;;;;;;;6238148;22;20958;-88
2023/08/10 08:36:05;;;;;;;6.90;4.47;;;;;;;;;;6258418;22;20396;-88
2023/08/10 08:38:32;;;;;;;4.17;3.77;;;;;;;;;;6234178;22;20381;-88
2023/08/10 08:40:58;;;;;;;5.00;4.50;;;;;;;;;;6233840;22;20503;-88
2023/08/10 08:43:24;;;;;;;5.27;4.53;;;;;;;;;;6241343;22;20388;-89
2023/08/10 08:45:50;;;;;;;4.83;4.10;;;;;;;;;;6233176;22;20369;-88
2023/08/10 08:48:17;;;;;;;5.67;3.80;;;;;;;;;;6234128;22;20385;-89
2023/08/10 08:50:43;;;;;;;4.93;4.33;;;;;;;;;;6234676;22;20388;-89
2023/08/10 08:53:11;;;;;;;6.87;4.03;;;;;;;;;;6237059;22;20437;-90
2023/08/10 08:55:38;;;;;;;5.40;3.90;;;;;;;;;;6232057;22;20412;-88
2023/08/10 08:58:04;;;;;;;4.73;3.77;;;;;;;;;;6232317;22;20392;-87
2023/08/10 09:00:31;;;;;;;5.17;4.67;;;;;;;;;;6257763;22;20439;-87
2023/08/10 09:02:58;;;;;;;5.07;4.57;;;;;;;;;;6234871;22;20451;-88
2023/08/10 09:05:24;;;;;;;6.67;4.20;;;;;;;;;;6231268;22;20443;-88
2023/08/10 09:07:53;;;;;;;4.90;4.50;;;;;;;;;;6258526;22;20803;-86
2023/08/10 09:10:20;;;;;;;3.97;3.50;;;;;;;;;;6233704;22;20390;-87
2023/08/10 09:13:00;;;;;;;4.27;3.43;;;;;;;;;;6236881;22;20389;-87
2023/08/10 09:15:27;;;;;;;4.43;4.03;;;;;;;;;;6214806;23;20411;-87
2023/08/10 09:17:53;;;;;;;6.40;4.67;;;;;;;;;;6189056;23;20368;-87
2023/08/10 09:20:20;;;;;;;6.90;4.00;;;;;;;;;;6167367;23;20518;-88
2023/08/10 09:23:04;;;;;;;5.47;4.20;;;;;;;;;;6170313;23;20384;-88
2023/08/10 09:25:38;;;;;;;6.00;5.30;;;;;;;;;;6166045;23;20750;-87
2023/08/10 09:28:07;;;;;;;4.50;4.10;;;;;;;;;;6169463;23;20418;-88
2023/08/10 09:30:33;;;;;;;4.13;3.73;;;;;;;;;;6167101;23;20408;-87
2023/08/10 09:32:59;;;;;;;6.17;3.90;;;;;;;;;;6191636;23;20399;-87
2023/08/10 09:35:25;;;;;;;6.40;4.83;;;;;;;;;;6166024;23;20376;-91
2023/08/10 09:37:51;;;;;;;6.30;4.40;;;;;;;;;;6170661;23;20844;-86
2023/08/10 09:40:36;;;;;;;5.67;4.17;;;;;;;;;;6235226;22;20424;-87
2023/08/10 09:43:08;;;;;;;5.07;3.70;;;;;;;;;;6262470;22;20354;-88
2023/08/10 09:45:34;;;;;;;5.30;4.30;;;;;;;;;;6232493;22;20456;-87
2023/08/10 09:48:00;;;;;;;5.20;3.27;;;;;;;;;;6238281;22;20407;-87
2023/08/10 09:50:27;;;;;;;3.20;2.90;;;;;;;;;;6232074;22;20381;-88
2023/08/10 09:52:53;;;;;;;4.40;3.70;;;;;;;;;;6236185;22;20385;-87
2023/08/10 09:55:19;;;;;;;5.80;3.67;;;;;;;;;;6233165;22;20381;-87
2023/08/10 09:57:45;;;;;;;3.77;3.27;;;;;;;;;;6233867;22;20384;-88
2023/08/10 10:00:18;;;;;;;4.30;3.63;;;;;;;;;;6233492;22;20428;-87
2023/08/10 10:02:45;;;;;;;5.73;3.47;;;;;;;;;;6240971;22;20456;-87
2023/08/10 10:05:11;;;;;;;5.47;3.53;;;;;;;;;;6232123;22;20405;-89
2023/08/10 10:07:37;;;;;;;4.73;3.43;;;;;;;;;;6237683;22;20876;-87
2023/08/10 10:10:04;;;;;;;4.73;4.10;;;;;;;;;;6231058;22;20377;-88
2023/08/10 10:12:30;;;;;;;4.43;3.33;;;;;;;;;;6237013;22;20408;-89
2023/08/10 10:14:57;;;;;;;3.50;3.20;;;;;;;;;;6232985;22;20385;-89
2023/08/10 10:17:23;;;;;;;4.03;3.60;;;;;;;;;;6240736;22;20428;-89
2023/08/10 10:19:50;;;;;;;3.20;2.77;;;;;;;;;;6231871;22;20424;-88
2023/08/10 10:22:16;;;;;;;3.77;3.30;;;;;;;;;;6231841;22;20716;-87
2023/08/10 10:24:42;;;;;;;4.20;2.83;;;;;;;;;;6232029;22;20666;-88
2023/08/10 10:27:09;;;;;;;4.00;3.60;;;;;;;;;;6233905;22;20382;-88
2023/08/10 10:29:42;;;;;;;3.83;3.53;;;;;;;;;;6233678;22;20377;-88
2023/08/10 10:32:31;;;;;;;4.73;4.23;;;;;;;;;;6237462;22;20426;-88
2023/08/10 10:34:57;;;;;;;5.07;4.10;;;;;;;;;;6135156;23;20837;-88
2023/08/10 10:37:29;;;;;;;4.63;4.00;;;;;;;;;;6112305;23;20385;-88
2023/08/10 10:40:13;;;;;;;5.00;3.90;;;;;;;;;;6111221;23;20496;-88
2023/08/10 10:42:59;;;;;;;6.03;3.83;;;;;;;;;;6116025;23;20388;-88
2023/08/10 10:45:26;;;;;;;6.03;4.20;;;;;;;;;;6163412;23;20384;-87
2023/08/10 10:47:55;;;;;;;4.60;3.80;;;;;;;;;;6113537;23;21290;-88
2023/08/10 10:50:25;;;;;;;4.33;3.97;;;;;;;;;;6113982;23;20442;-88
2023/08/10 10:52:58;;;;;;;6.13;3.70;;;;;;;;;;6128773;23;20385;-88
2023/08/10 10:55:24;;;;;;;9.93;3.70;;;;;;;;;;6139576;23;20376;-90
2023/08/10 10:57:50;;;;;;;3.93;3.23;;;;;;;;;;6110727;23;20865;-88
2023/08/10 11:00:17;;;;;;;4.77;3.67;;;;;;;;;;6111150;23;20450;-89
2023/08/10 11:02:50;;;;;;;7.60;3.97;;;;;;;;;;6111959;23;20442;-88
2023/08/10 11:05:17;;;;;;;3.87;3.30;;;;;;;;;;6164007;23;20377;-88
2023/08/10 11:07:43;;;;;;;3.93;3.53;;;;;;;;;;6137913;23;20378;-88
2023/08/10 11:10:09;;;;;;;3.63;3.20;;;;;;;;;;6161331;23;20973;-88
2023/08/10 11:12:37;;;;;;;6.43;4.37;;;;;;;;;;6206237;22;20392;-87
2023/08/10 11:15:04;;;;;;;3.40;2.80;;;;;;;;;;6237442;22;20381;-87
2023/08/10 11:17:30;;;;;;;7.30;3.53;;;;;;;;;;6231230;22;20405;-89
2023/08/10 11:19:56;;;;;;;4.57;3.50;;;;;;;;;;6239865;22;20972;-88
2023/08/10 11:22:22;;;;;;;4.80;3.40;;;;;;;;;;6230764;22;20389;-88
2023/08/10 11:24:48;;;;;;;3.93;2.90;;;;;;;;;;6234544;22;20401;-88
2023/08/10 11:27:14;;;;;;;4.80;3.13;;;;;;;;;;6257079;22;20388;-88
2023/08/10 11:29:40;;;;;;;3.23;2.83;;;;;;;;;;6257272;22;20423;-87
2023/08/10 11:32:06;;;;;;;5.00;3.37;;;;;;;;;;6231682;22;20385;-88
2023/08/10 11:34:34;;;;;;;3.17;2.80;;;;;;;;;;6235575;22;20377;-88
2023/08/10 11:37:03;;;;;;;3.33;3.03;;;;;;;;;;6256559;22;20380;-87
2023/08/10 11:39:30;;;;;;;3.53;3.03;;;;;;;;;;6257399;22;20374;-88
2023/08/10 11:41:56;;;;;;;2.60;2.33;;;;;;;;;;6258373;22;20396;-87
2023/08/10 11:44:36;;;;;;;4.50;2.83;;;;;;;;;;6234447;22;20377;-89
2023/08/10 11:47:02;;;;;;;4.30;3.37;;;;;;;;;;6232813;22;20388;-89
2023/08/10 11:49:43;;;;;;;3.97;2.93;;;;;;;;;;6236816;22;20377;-87
2023/08/10 11:52:14;;;;;;;3.27;2.47;;;;;;;;;;6257433;22;20369;-88
2023/08/10 11:54:40;;;;;;;5.83;3.20;;;;;;;;;;6236084;22;20358;-88
2023/08/10 11:57:12;;;;;;;3.20;2.90;;;;;;;;;;6258904;22;20369;-89
2023/08/10 11:59:38;;;;;;;4.47;3.33;;;;;;;;;;6233262;22;20413;-88
2023/08/10 12:02:04;;;;;;;4.50;2.57;;;;;;;;;;6231576;22;20416;-89
2023/08/10 12:04:31;;;;;;;4.63;2.80;;;;;;;;;;6257418;22;20418;-88
2023/08/10 12:06:57;;;;;;;3.60;3.07;;;;;;;;;;6232643;22;20417;-89
2023/08/10 12:09:28;;;;;;;3.20;2.47;;;;;;;;;;6236366;22;20380;-88
2023/08/10 12:11:54;;;;;;;4.50;2.40;;;;;;;;;;6234085;22;20364;-89
2023/08/10 12:14:20;;;;;;;3.57;2.70;;;;;;;;;;6236552;22;20369;-87
2023/08/10 12:16:47;;;;;;;6.10;2.80;;;;;;;;;;6258896;22;20889;-89
2023/08/10 12:19:17;;;;;;;3.33;2.43;;;;;;;;;;6234398;22;20361;-89
2023/08/10 12:21:45;;;;;;;4.03;2.90;;;;;;;;;;6198761;23;20159;-89
2023/08/10 12:27:05;;;;;;;4.37;3.10;;;;;;;;;;6200077;23;20397;-88
2023/08/10 12:29:31;;;;;;;3.90;3.10;;;;;;;;;;6172968;23;20917;-89
2023/08/10 12:31:57;;;;;;;3.50;2.80;;;;;;;;;;6171196;23;20370;-87
2023/08/10 12:34:23;;;;;;;3.10;2.70;;;;;;;;;;6172803;23;20427;-88
2023/08/10 12:36:49;;;;;;;4.53;3.00;;;;;;;;;;6169714;23;21049;-89
2023/08/10 12:39:17;;;;;;;3.80;3.30;;;;;;;;;;6172260;23;20370;-89
2023/08/10 12:41:43;;;;;;;4.03;3.00;;;;;;;;;;6172770;23;20419;-89
2023/08/10 12:44:09;;;;;;;3.70;3.10;;;;;;;;;;6173319;23;20382;-88
2023/08/10 12:46:36;;;;;;;3.90;2.83;;;;;;;;;;6199239;23;20391;-89
2023/08/10 12:49:02;;;;;;;3.67;2.80;;;;;;;;;;6172997;23;20371;-89
2023/08/10 12:51:28;;;;;;;3.80;2.40;;;;;;;;;;6175361;23;20433;-89
2023/08/10 12:53:54;;;;;;;3.50;2.63;;;;;;;;;;6231933;22;20824;-88
2023/08/10 12:56:20;;;;;;;4.03;2.27;;;;;;;;;;6233925;22;20389;-90
2023/08/10 12:58:53;;;;;;;4.50;3.37;;;;;;;;;;6233456;22;20380;-90
2023/08/10 13:01:19;;;;;;;3.10;2.50;;;;;;;;;;6197776;23;20435;-89
2023/08/10 13:03:46;;;;;;;3.47;2.67;;;;;;;;;;6142591;23;20401;-88
2023/08/10 13:06:12;;;;;;;2.73;2.33;;;;;;;;;;6145520;23;20388;-90
2023/08/10 13:08:38;;;;;;;3.90;3.10;;;;;;;;;;6139177;23;20705;-88
2023/08/10 13:11:04;;;;;;;3.57;2.73;;;;;;;;;;6139716;23;20387;-88
2023/08/10 13:13:30;;;;;;;3.13;2.30;;;;;;;;;;6138313;23;20780;-88
2023/08/10 13:15:56;;;;;;;4.30;2.80;;;;;;;;;;6161860;23;20381;-91
2023/08/10 13:18:24;;;;;;;5.60;2.57;;;;;;;;;;6168109;23;20385;-89
2023/08/10 13:20:50;;;;;;;4.10;3.40;;;;;;;;;;6161801;23;20496;-89
2023/08/10 13:23:20;;;;;;;3.53;2.50;;;;;;;;;;6168358;23;20846;-87
2023/08/10 13:25:46;;;;;;;4.10;3.20;;;;;;;;;;6162326;23;20611;-89
2023/08/10 13:28:12;;;;;;;4.00;2.97;;;;;;;;;;6164665;23;20421;-89
2023/08/10 13:30:38;;;;;;;3.03;2.73;;;;;;;;;;6163061;23;20491;-90
2023/08/10 13:33:36;;;;;;;3.50;2.83;;;;;;;;;;6192924;23;20436;-89
2023/08/10 13:36:02;;;;;;;5.43;3.17;;;;;;;;;;6195667;23;20383;-89
2023/08/10 13:38:28;;;;;;;3.00;2.40;;;;;;;;;;6166405;23;20372;-89
2023/08/10 13:40:54;;;;;;;3.53;2.73;;;;;;;;;;6166956;23;20810;-89
2023/08/10 13:43:20;;;;;;;3.80;2.90;;;;;;;;;;6167160;23;20461;-89
2023/08/10 13:45:46;;;;;;;3.90;2.63;;;;;;;;;;6170850;23;20412;-89
2023/08/10 13:48:12;;;;;;;4.60;3.27;;;;;;;;;;6168081;23;20395;-90
2023/08/10 13:50:38;;;;;;;4.00;2.73;;;;;;;;;;6194437;23;20726;-89
2023/08/10 13:53:04;;;;;;;3.20;2.70;;;;;;;;;;6203299;23;20389;-88
2023/08/10 13:55:30;;;;;;;5.70;2.60;;;;;;;;;;6206357;23;20382;-90
2023/08/10 13:57:56;;;;;;;3.37;3.03;;;;;;;;;;6202237;23;20432;-89
2023/08/10 14:00:22;;;;;;;2.70;2.47;;;;;;;;;;6203774;23;21131;-90
2023/08/10 14:02:48;;;;;;;4.83;3.27;;;;;;;;;;6202508;23;20940;-90
2023/08/10 14:05:14;;;;;;;3.60;2.90;;;;;;;;;;6198867;23;20380;-89
2023/08/10 14:07:40;;;;;;;3.40;2.70;;;;;;;;;;6142185;23;20380;-89
2023/08/10 14:10:06;;;;;;;3.27;2.70;;;;;;;;;;6144731;23;20376;-88
2023/08/10 14:12:32;;;;;;;3.47;3.17;;;;;;;;;;6138525;23;20899;-90
2023/08/10 14:14:58;;;;;;;4.30;2.90;;;;;;;;;;6119492;23;20369;-89
2023/08/10 14:17:24;;;;;;;3.70;2.50;;;;;;;;;;6167662;23;20415;-90
2023/08/10 14:19:50;;;;;;;3.63;2.73;;;;;;;;;;6170524;23;20514;-89
2023/08/10 14:22:16;;;;;;;5.00;3.00;;;;;;;;;;6168610;23;20384;-90
2023/08/10 14:24:42;;;;;;;4.90;3.20;;;;;;;;;;6175917;23;20376;-90
2023/08/10 14:27:09;;;;;;;4.17;2.90;;;;;;;;;;6167186;23;20451;-89
2023/08/10 14:29:35;;;;;;;6.03;3.20;;;;;;;;;;6168654;23;20765;-89
2023/08/10 14:32:01;;;;;;;3.13;2.80;;;;;;;;;;6169513;23;20387;-90
2023/08/10 14:34:47;;;;;;;3.50;2.83;;;;;;;;;;6175790;23;20879;-88
2023/08/10 14:37:13;;;;;;;3.73;2.90;;;;;;;;;;6167357;23;20383;-91
2023/08/10 14:39:40;;;;;;;4.30;3.10;;;;;;;;;;6105587;23;20378;-89
2023/08/10 14:42:06;;;;;;;4.50;3.30;;;;;;;;;;6065429;23;20380;-89
2023/08/10 14:44:34;;;;;;;6.63;3.10;;;;;;;;;;6146784;23;20376;-90
2023/08/10 14:47:00;;;;;;;4.27;3.33;;;;;;;;;;6170181;23;20380;-90
2023/08/10 14:49:26;;;;;;;3.30;2.73;;;;;;;;;;6170500;23;20403;-90